Portada
METAR-TAF:

METAR-TAF

Aeroports :

Port Vila, Éfaté, Vanuatu

latitud: 17-42S, longitud: 168-18E, altitud: 20 m

Observació

L'informe es va fer fa 1 hora i 6 minuts, a les 08:00 UTC
Vent 2 kt del Est/Nord-Est
Temperatura 26°C
Humitat 94%
Pressió 1008 hPa
Visibilitat 10 km o més
Núvols disperses a una alçada de 2000 ft
Cel ennuvolat a una alçada de 4500 ft

METAR: NVVV 080800Z 07002KT 9999 SCT020 BKN045 26/25 Q1008

Hora: 20:06 (09:06 UTC)

Pronòstic

L'informe es va fer fa 4 hores i 36 minuts, a les 04:30 UTC
Pronòstic vàlid del 08 a les 06 UTC al 09 a les 06 UTC
Vent 10 kt del Est/Sud-Est
Visibilitat 10 km o més
Núvols disperses a una alçada de 2000 ft
Probabilitat 30%
entre IN i TE UTC
Visibilitat: 9000 m
Cel ennuvolat a una alçada de 1800 ft
xàfecs de pluja

TAF: NVVV 080430Z 0806/0906 12010KT 9999 SCT020 PROB30 INTER 0806/0812 9000 -SHRA BKN018

Observacions i pronòstics meteorològics de més de 4000 aeroports (METAR i TAF).

Les estacions disponibles són els punts grocs i vermells al mapa.

Posi el ratolí al punt desitjat per veure el nom de l'estació.

Feu clic per veure les observacions i els pronòstics meteorològics.

Per canviar el mapa: feu clic els botons verds amb una creu de color negre per apropar; al botó verd amb un guió per allunyar la imatge; o en les fletxes verdes per a mapes adjacents.


METAR-TAF: